createdAt,value
2023-03-23T16:02:07.143Z,17.90
2023-03-23T16:07:08.668Z,17.80
2023-03-23T16:12:10.090Z,17.80
2023-03-23T16:17:11.539Z,17.70
2023-03-23T16:22:12.969Z,17.60
2023-03-23T16:27:14.447Z,17.50
2023-03-23T16:32:23.408Z,17.40
2023-03-23T16:37:24.908Z,17.30
2023-03-23T16:42:26.500Z,17.20
2023-03-23T16:47:28.001Z,17.10
2023-03-23T16:52:29.542Z,17.10
2023-03-23T16:57:31.002Z,17.00
2023-03-23T17:02:32.563Z,16.90
2023-03-23T17:07:34.063Z,16.90
2023-03-23T17:12:35.519Z,16.80
2023-03-23T17:17:36.978Z,16.80
2023-03-23T17:22:38.463Z,16.70
2023-03-23T17:27:39.940Z,16.70
2023-03-23T17:32:41.382Z,16.50
2023-03-23T17:37:42.884Z,16.40
2023-03-23T17:42:44.441Z,16.30
2023-03-23T17:47:45.936Z,16.20
2023-03-23T17:52:47.371Z,16.10
2023-03-23T17:57:48.793Z,16.10
2023-03-23T18:02:50.294Z,16.00
2023-03-23T18:07:51.838Z,16.00
2023-03-23T18:12:53.355Z,15.90
2023-03-23T18:17:54.823Z,15.90
2023-03-23T18:22:56.339Z,15.80
2023-03-23T18:27:57.776Z,15.80
2023-03-23T18:33:07.674Z,15.80
2023-03-23T18:38:09.155Z,15.70
2023-03-23T18:43:10.623Z,15.70
2023-03-23T18:48:12.097Z,15.70
2023-03-23T18:53:13.525Z,15.70
2023-03-23T18:58:14.985Z,15.70
2023-03-23T19:03:16.548Z,15.70
2023-03-23T19:08:18.065Z,15.60
2023-03-23T19:13:19.530Z,15.60
2023-03-23T19:18:21.089Z,15.60
2023-03-23T19:23:22.534Z,15.50
2023-03-23T19:29:05.554Z,15.50
2023-03-23T19:33:45.440Z,15.40
2023-03-23T19:38:48.866Z,15.30
2023-03-23T19:43:50.358Z,15.30
2023-03-23T19:48:51.826Z,15.20
2023-03-23T19:53:53.706Z,15.20
2023-03-23T19:58:55.758Z,15.10
2023-03-23T20:03:59.699Z,15.10
2023-03-23T20:09:01.531Z,15.00
2023-03-23T20:14:03.005Z,15.00
2023-03-23T20:19:05.416Z,15.00
2023-03-23T20:24:07.253Z,15.00
2023-03-23T20:29:08.722Z,15.00
2023-03-23T20:34:10.417Z,15.00
2023-03-23T20:39:11.889Z,14.90
2023-03-23T20:44:13.338Z,14.90
2023-03-23T20:49:14.803Z,14.80
2023-03-23T20:54:19.691Z,14.70
2023-03-23T20:59:21.136Z,14.60
2023-03-23T21:04:22.692Z,14.50
2023-03-23T21:09:24.564Z,14.30
2023-03-23T21:14:26.211Z,14.20
2023-03-23T21:19:27.711Z,14.10
2023-03-23T21:24:29.222Z,13.90
2023-03-23T21:29:30.665Z,13.80
2023-03-23T21:34:32.130Z,13.70
2023-03-23T21:39:33.657Z,13.50
2023-03-23T21:44:35.214Z,13.40
2023-03-23T21:49:40.563Z,13.30
2023-03-23T21:54:42.899Z,13.30
2023-03-23T21:59:44.376Z,13.20
2023-03-23T22:04:45.814Z,13.10
2023-03-23T22:09:47.276Z,13.00
2023-03-23T22:14:48.729Z,12.80
2023-03-23T22:19:50.397Z,12.60
2023-03-23T22:24:51.824Z,12.40
2023-03-23T22:29:53.298Z,12.30
2023-03-23T22:34:54.761Z,12.20
2023-03-23T22:39:58.521Z,12.10
2023-03-23T22:44:59.954Z,12.00
2023-03-23T22:50:01.399Z,11.90
2023-03-23T22:55:02.843Z,11.90
2023-03-23T23:00:04.308Z,11.80
2023-03-23T23:05:05.760Z,11.70
2023-03-23T23:10:07.291Z,11.70
2023-03-23T23:15:08.782Z,11.70
2023-03-23T23:20:10.213Z,11.70
2023-03-23T23:25:11.647Z,11.80
2023-03-23T23:30:13.266Z,11.80
2023-03-23T23:35:16.502Z,11.90
2023-03-23T23:40:17.934Z,11.90
2023-03-23T23:45:19.391Z,12.00
2023-03-23T23:50:20.812Z,12.10
2023-03-23T23:55:22.236Z,12.10
